sensor_id;sensor_type;location;lat;lon;timestamp;P1;durP1;ratioP1;P2;durP2;ratioP2
15082;SDS011;7640;53.116;6.878;2024-01-30T00:01:11;39.27;;;28.97;;
15082;SDS011;7640;53.116;6.878;2024-01-30T00:03:40;44.03;;;29.13;;
15082;SDS011;7640;53.116;6.878;2024-01-30T00:06:09;44.07;;;30.27;;
15082;SDS011;7640;53.116;6.878;2024-01-30T00:08:39;44.53;;;32.67;;
15082;SDS011;7640;53.116;6.878;2024-01-30T00:11:09;48.77;;;33.27;;
15082;SDS011;7640;53.116;6.878;2024-01-30T00:13:37;45.80;;;33.37;;
15082;SDS011;7640;53.116;6.878;2024-01-30T00:16:06;49.60;;;32.67;;
15082;SDS011;7640;53.116;6.878;2024-01-30T00:18:35;46.73;;;32.07;;
15082;SDS011;7640;53.116;6.878;2024-01-30T00:21:05;45.90;;;31.93;;
15082;SDS011;7640;53.116;6.878;2024-01-30T00:23:34;47.70;;;32.97;;
15082;SDS011;7640;53.116;6.878;2024-01-30T00:26:02;49.93;;;34.07;;
15082;SDS011;7640;53.116;6.878;2024-01-30T00:28:33;47.27;;;33.00;;
15082;SDS011;7640;53.116;6.878;2024-01-30T00:31:01;46.60;;;31.73;;
15082;SDS011;7640;53.116;6.878;2024-01-30T00:33:30;47.60;;;31.37;;
15082;SDS011;7640;53.116;6.878;2024-01-30T00:35:59;47.00;;;31.07;;
15082;SDS011;7640;53.116;6.878;2024-01-30T00:38:28;48.70;;;31.83;;
15082;SDS011;7640;53.116;6.878;2024-01-30T00:40:56;48.33;;;32.17;;
15082;SDS011;7640;53.116;6.878;2024-01-30T00:43:25;51.53;;;35.20;;
15082;SDS011;7640;53.116;6.878;2024-01-30T00:45:55;52.63;;;34.23;;
15082;SDS011;7640;53.116;6.878;2024-01-30T00:48:24;55.13;;;34.77;;
15082;SDS011;7640;53.116;6.878;2024-01-30T00:50:53;48.67;;;33.23;;
15082;SDS011;7640;53.116;6.878;2024-01-30T00:53:22;46.50;;;32.50;;
15082;SDS011;7640;53.116;6.878;2024-01-30T00:55:50;50.20;;;33.40;;
15082;SDS011;7640;53.116;6.878;2024-01-30T00:58:19;49.57;;;33.43;;
15082;SDS011;7640;53.116;6.878;2024-01-30T01:00:47;47.43;;;33.13;;
15082;SDS011;7640;53.116;6.878;2024-01-30T01:03:17;46.70;;;32.03;;
15082;SDS011;7640;53.116;6.878;2024-01-30T01:05:46;44.13;;;30.80;;
15082;SDS011;7640;53.116;6.878;2024-01-30T01:08:14;42.53;;;30.07;;
15082;SDS011;7640;53.116;6.878;2024-01-30T01:10:43;44.43;;;30.93;;
15082;SDS011;7640;53.116;6.878;2024-01-30T01:13:12;43.70;;;31.30;;
15082;SDS011;7640;53.116;6.878;2024-01-30T01:15:41;44.77;;;30.43;;
15082;SDS011;7640;53.116;6.878;2024-01-30T01:18:10;44.03;;;30.57;;
15082;SDS011;7640;53.116;6.878;2024-01-30T01:20:40;44.00;;;29.30;;
15082;SDS011;7640;53.116;6.878;2024-01-30T01:23:09;45.90;;;30.90;;
15082;SDS011;7640;53.116;6.878;2024-01-30T01:25:37;42.87;;;29.37;;
15082;SDS011;7640;53.116;6.878;2024-01-30T01:28:06;41.60;;;28.80;;
15082;SDS011;7640;53.116;6.878;2024-01-30T01:30:34;46.70;;;29.80;;
15082;SDS011;7640;53.116;6.878;2024-01-30T01:33:03;40.93;;;27.40;;
15082;SDS011;7640;53.116;6.878;2024-01-30T01:35:33;38.87;;;28.77;;
15082;SDS011;7640;53.116;6.878;2024-01-30T01:38:03;45.13;;;31.00;;
15082;SDS011;7640;53.116;6.878;2024-01-30T01:40:32;41.60;;;30.07;;
15082;SDS011;7640;53.116;6.878;2024-01-30T01:43:02;41.27;;;29.33;;
15082;SDS011;7640;53.116;6.878;2024-01-30T01:45:32;40.70;;;28.80;;
15082;SDS011;7640;53.116;6.878;2024-01-30T01:48:00;41.43;;;29.07;;
15082;SDS011;7640;53.116;6.878;2024-01-30T01:50:29;43.67;;;30.10;;
15082;SDS011;7640;53.116;6.878;2024-01-30T01:52:59;43.63;;;28.63;;
15082;SDS011;7640;53.116;6.878;2024-01-30T01:55:31;41.57;;;28.63;;
15082;SDS011;7640;53.116;6.878;2024-01-30T01:58:01;42.70;;;29.60;;
15082;SDS011;7640;53.116;6.878;2024-01-30T02:00:31;45.97;;;30.90;;
15082;SDS011;7640;53.116;6.878;2024-01-30T02:03:01;47.37;;;29.83;;
15082;SDS011;7640;53.116;6.878;2024-01-30T02:05:33;46.20;;;30.83;;
15082;SDS011;7640;53.116;6.878;2024-01-30T02:08:04;55.20;;;32.17;;
15082;SDS011;7640;53.116;6.878;2024-01-30T02:10:37;51.57;;;30.97;;
15082;SDS011;7640;53.116;6.878;2024-01-30T02:13:06;43.60;;;29.47;;
15082;SDS011;7640;53.116;6.878;2024-01-30T02:15:36;45.43;;;30.73;;
15082;SDS011;7640;53.116;6.878;2024-01-30T02:18:05;46.00;;;30.50;;
15082;SDS011;7640;53.116;6.878;2024-01-30T02:20:37;42.77;;;28.37;;
15082;SDS011;7640;53.116;6.878;2024-01-30T02:23:08;41.87;;;28.50;;
15082;SDS011;7640;53.116;6.878;2024-01-30T02:25:42;41.47;;;29.07;;
15082;SDS011;7640;53.116;6.878;2024-01-30T02:28:15;42.60;;;29.40;;
15082;SDS011;7640;53.116;6.878;2024-01-30T02:30:43;39.80;;;27.27;;
15082;SDS011;7640;53.116;6.878;2024-01-30T02:33:13;47.60;;;28.73;;
15082;SDS011;7640;53.116;6.878;2024-01-30T02:35:42;49.07;;;31.77;;
15082;SDS011;7640;53.116;6.878;2024-01-30T02:38:13;54.60;;;32.63;;
15082;SDS011;7640;53.116;6.878;2024-01-30T02:40:43;51.67;;;32.93;;
15082;SDS011;7640;53.116;6.878;2024-01-30T02:43:12;55.00;;;33.03;;
15082;SDS011;7640;53.116;6.878;2024-01-30T02:45:41;44.43;;;29.87;;
15082;SDS011;7640;53.116;6.878;2024-01-30T02:48:11;43.80;;;28.67;;
15082;SDS011;7640;53.116;6.878;2024-01-30T02:50:41;41.20;;;28.10;;
15082;SDS011;7640;53.116;6.878;2024-01-30T02:53:10;43.60;;;28.67;;
15082;SDS011;7640;53.116;6.878;2024-01-30T02:55:41;43.07;;;29.17;;
15082;SDS011;7640;53.116;6.878;2024-01-30T02:58:10;46.50;;;29.07;;
15082;SDS011;7640;53.116;6.878;2024-01-30T03:00:39;41.87;;;27.60;;
15082;SDS011;7640;53.116;6.878;2024-01-30T03:03:08;45.33;;;29.90;;
15082;SDS011;7640;53.116;6.878;2024-01-30T03:05:36;49.40;;;30.00;;
15082;SDS011;7640;53.116;6.878;2024-01-30T03:08:05;46.93;;;29.17;;
15082;SDS011;7640;53.116;6.878;2024-01-30T03:10:35;41.93;;;29.57;;
15082;SDS011;7640;53.116;6.878;2024-01-30T03:13:04;43.80;;;28.13;;
15082;SDS011;7640;53.116;6.878;2024-01-30T03:15:32;42.73;;;29.17;;
15082;SDS011;7640;53.116;6.878;2024-01-30T03:18:01;42.43;;;28.53;;
15082;SDS011;7640;53.116;6.878;2024-01-30T03:20:30;42.70;;;28.70;;
15082;SDS011;7640;53.116;6.878;2024-01-30T03:22:59;47.43;;;28.73;;
15082;SDS011;7640;53.116;6.878;2024-01-30T03:25:29;51.80;;;30.40;;
15082;SDS011;7640;53.116;6.878;2024-01-30T03:27:59;45.57;;;29.30;;
15082;SDS011;7640;53.116;6.878;2024-01-30T03:30:28;48.57;;;30.53;;
15082;SDS011;7640;53.116;6.878;2024-01-30T03:32:56;43.30;;;29.60;;
15082;SDS011;7640;53.116;6.878;2024-01-30T03:35:25;46.47;;;29.07;;
15082;SDS011;7640;53.116;6.878;2024-01-30T03:37:53;43.47;;;28.20;;
15082;SDS011;7640;53.116;6.878;2024-01-30T03:40:22;48.80;;;30.80;;
15082;SDS011;7640;53.116;6.878;2024-01-30T03:42:50;51.50;;;30.03;;
15082;SDS011;7640;53.116;6.878;2024-01-30T03:45:20;44.50;;;27.73;;
15082;SDS011;7640;53.116;6.878;2024-01-30T03:47:49;47.17;;;28.77;;
15082;SDS011;7640;53.116;6.878;2024-01-30T03:50:18;42.43;;;27.37;;
15082;SDS011;7640;53.116;6.878;2024-01-30T03:52:46;46.07;;;28.47;;
15082;SDS011;7640;53.116;6.878;2024-01-30T03:55:15;39.20;;;27.27;;
15082;SDS011;7640;53.116;6.878;2024-01-30T03:57:44;37.80;;;26.17;;
15082;SDS011;7640;53.116;6.878;2024-01-30T04:00:14;37.33;;;25.03;;
15082;SDS011;7640;53.116;6.878;2024-01-30T04:02:45;37.17;;;25.70;;
15082;SDS011;7640;53.116;6.878;2024-01-30T04:05:14;35.77;;;24.70;;
15082;SDS011;7640;53.116;6.878;2024-01-30T04:07:43;36.90;;;26.17;;
15082;SDS011;7640;53.116;6.878;2024-01-30T04:10:12;32.77;;;24.30;;
15082;SDS011;7640;53.116;6.878;2024-01-30T04:12:40;33.67;;;24.33;;
15082;SDS011;7640;53.116;6.878;2024-01-30T04:15:09;32.40;;;24.13;;
15082;SDS011;7640;53.116;6.878;2024-01-30T04:17:38;37.03;;;24.17;;
15082;SDS011;7640;53.116;6.878;2024-01-30T04:20:09;33.83;;;24.70;;
15082;SDS011;7640;53.116;6.878;2024-01-30T04:22:43;34.47;;;24.33;;
15082;SDS011;7640;53.116;6.878;2024-01-30T04:25:12;31.70;;;23.70;;
15082;SDS011;7640;53.116;6.878;2024-01-30T04:27:42;33.80;;;23.07;;
15082;SDS011;7640;53.116;6.878;2024-01-30T04:30:11;33.40;;;23.67;;
15082;SDS011;7640;53.116;6.878;2024-01-30T04:32:41;31.70;;;22.87;;
15082;SDS011;7640;53.116;6.878;2024-01-30T04:35:12;31.97;;;23.03;;
15082;SDS011;7640;53.116;6.878;2024-01-30T04:37:41;30.80;;;22.03;;
15082;SDS011;7640;53.116;6.878;2024-01-30T04:40:10;33.33;;;23.23;;
15082;SDS011;7640;53.116;6.878;2024-01-30T04:42:40;31.63;;;23.30;;
15082;SDS011;7640;53.116;6.878;2024-01-30T04:45:09;34.93;;;23.27;;
15082;SDS011;7640;53.116;6.878;2024-01-30T04:47:38;31.10;;;21.80;;
15082;SDS011;7640;53.116;6.878;2024-01-30T04:50:07;32.83;;;23.73;;
15082;SDS011;7640;53.116;6.878;2024-01-30T04:52:38;32.63;;;22.73;;
15082;SDS011;7640;53.116;6.878;2024-01-30T04:55:06;29.80;;;21.67;;
15082;SDS011;7640;53.116;6.878;2024-01-30T04:57:36;28.97;;;20.27;;
15082;SDS011;7640;53.116;6.878;2024-01-30T05:00:05;30.93;;;22.03;;
15082;SDS011;7640;53.116;6.878;2024-01-30T05:02:35;32.67;;;23.27;;
15082;SDS011;7640;53.116;6.878;2024-01-30T05:05:03;33.87;;;21.33;;
15082;SDS011;7640;53.116;6.878;2024-01-30T05:07:33;30.20;;;21.70;;
15082;SDS011;7640;53.116;6.878;2024-01-30T05:10:03;29.97;;;21.13;;
15082;SDS011;7640;53.116;6.878;2024-01-30T05:12:33;32.13;;;20.93;;
15082;SDS011;7640;53.116;6.878;2024-01-30T05:15:01;30.00;;;21.83;;
15082;SDS011;7640;53.116;6.878;2024-01-30T05:17:31;32.30;;;20.17;;
15082;SDS011;7640;53.116;6.878;2024-01-30T05:20:00;28.30;;;20.63;;
15082;SDS011;7640;53.116;6.878;2024-01-30T05:22:29;27.53;;;20.40;;
15082;SDS011;7640;53.116;6.878;2024-01-30T05:24:57;28.87;;;19.63;;
15082;SDS011;7640;53.116;6.878;2024-01-30T05:27:27;27.80;;;20.33;;
15082;SDS011;7640;53.116;6.878;2024-01-30T05:29:56;28.33;;;19.73;;
15082;SDS011;7640;53.116;6.878;2024-01-30T05:32:24;28.77;;;20.10;;
15082;SDS011;7640;53.116;6.878;2024-01-30T05:34:53;29.97;;;20.57;;
15082;SDS011;7640;53.116;6.878;2024-01-30T05:37:21;28.00;;;20.33;;
15082;SDS011;7640;53.116;6.878;2024-01-30T05:39:50;35.07;;;24.20;;
15082;SDS011;7640;53.116;6.878;2024-01-30T05:42:19;35.53;;;24.03;;
15082;SDS011;7640;53.116;6.878;2024-01-30T05:44:48;36.03;;;24.03;;
15082;SDS011;7640;53.116;6.878;2024-01-30T05:47:17;31.07;;;21.97;;
15082;SDS011;7640;53.116;6.878;2024-01-30T05:49:45;33.50;;;22.97;;
15082;SDS011;7640;53.116;6.878;2024-01-30T05:52:14;29.70;;;21.57;;
15082;SDS011;7640;53.116;6.878;2024-01-30T05:54:45;30.33;;;21.70;;
15082;SDS011;7640;53.116;6.878;2024-01-30T05:57:14;31.70;;;21.43;;
15082;SDS011;7640;53.116;6.878;2024-01-30T05:59:42;29.93;;;20.50;;
15082;SDS011;7640;53.116;6.878;2024-01-30T06:02:15;28.47;;;20.67;;
15082;SDS011;7640;53.116;6.878;2024-01-30T06:04:45;26.43;;;19.80;;
15082;SDS011;7640;53.116;6.878;2024-01-30T06:07:14;28.43;;;20.40;;
15082;SDS011;7640;53.116;6.878;2024-01-30T06:09:44;30.80;;;19.77;;
15082;SDS011;7640;53.116;6.878;2024-01-30T06:12:13;28.17;;;19.23;;
15082;SDS011;7640;53.116;6.878;2024-01-30T06:14:42;26.77;;;19.07;;
15082;SDS011;7640;53.116;6.878;2024-01-30T06:17:13;26.27;;;19.37;;
15082;SDS011;7640;53.116;6.878;2024-01-30T06:19:43;27.43;;;20.23;;
15082;SDS011;7640;53.116;6.878;2024-01-30T06:22:12;26.50;;;18.90;;
15082;SDS011;7640;53.116;6.878;2024-01-30T06:24:40;23.87;;;18.53;;
15082;SDS011;7640;53.116;6.878;2024-01-30T06:27:11;28.57;;;19.57;;
15082;SDS011;7640;53.116;6.878;2024-01-30T06:29:40;27.10;;;19.47;;
15082;SDS011;7640;53.116;6.878;2024-01-30T06:32:10;26.33;;;18.57;;
15082;SDS011;7640;53.116;6.878;2024-01-30T06:34:41;26.20;;;19.10;;
15082;SDS011;7640;53.116;6.878;2024-01-30T06:37:11;24.30;;;18.10;;
15082;SDS011;7640;53.116;6.878;2024-01-30T06:39:40;25.13;;;18.57;;
15082;SDS011;7640;53.116;6.878;2024-01-30T06:42:09;24.33;;;18.47;;
15082;SDS011;7640;53.116;6.878;2024-01-30T06:44:38;29.13;;;19.43;;
15082;SDS011;7640;53.116;6.878;2024-01-30T06:47:06;25.33;;;19.17;;
15082;SDS011;7640;53.116;6.878;2024-01-30T06:49:35;23.47;;;18.47;;
15082;SDS011;7640;53.116;6.878;2024-01-30T06:52:07;25.30;;;18.40;;
15082;SDS011;7640;53.116;6.878;2024-01-30T06:54:36;26.80;;;18.80;;
15082;SDS011;7640;53.116;6.878;2024-01-30T06:57:04;25.03;;;18.27;;
15082;SDS011;7640;53.116;6.878;2024-01-30T06:59:35;24.17;;;17.90;;
15082;SDS011;7640;53.116;6.878;2024-01-30T07:02:03;24.40;;;18.67;;
15082;SDS011;7640;53.116;6.878;2024-01-30T07:04:34;25.50;;;18.03;;
15082;SDS011;7640;53.116;6.878;2024-01-30T07:07:04;24.80;;;18.37;;
15082;SDS011;7640;53.116;6.878;2024-01-30T07:09:39;26.13;;;18.33;;
15082;SDS011;7640;53.116;6.878;2024-01-30T07:12:08;26.33;;;17.93;;
15082;SDS011;7640;53.116;6.878;2024-01-30T07:14:37;24.50;;;18.67;;
15082;SDS011;7640;53.116;6.878;2024-01-30T07:17:05;26.63;;;18.93;;
15082;SDS011;7640;53.116;6.878;2024-01-30T07:19:34;24.77;;;18.77;;
15082;SDS011;7640;53.116;6.878;2024-01-30T07:22:02;24.83;;;18.83;;
15082;SDS011;7640;53.116;6.878;2024-01-30T07:24:31;23.40;;;18.57;;
15082;SDS011;7640;53.116;6.878;2024-01-30T07:27:02;24.60;;;18.07;;
15082;SDS011;7640;53.116;6.878;2024-01-30T07:29:31;23.80;;;17.37;;
15082;SDS011;7640;53.116;6.878;2024-01-30T07:32:00;24.97;;;18.30;;
15082;SDS011;7640;53.116;6.878;2024-01-30T07:34:28;24.60;;;17.60;;
15082;SDS011;7640;53.116;6.878;2024-01-30T07:36:59;24.73;;;18.33;;
15082;SDS011;7640;53.116;6.878;2024-01-30T07:39:28;26.93;;;19.07;;
15082;SDS011;7640;53.116;6.878;2024-01-30T07:41:57;24.20;;;18.07;;
15082;SDS011;7640;53.116;6.878;2024-01-30T07:44:27;24.33;;;18.53;;
15082;SDS011;7640;53.116;6.878;2024-01-30T07:46:56;25.57;;;18.37;;
15082;SDS011;7640;53.116;6.878;2024-01-30T07:49:26;23.20;;;18.07;;
15082;SDS011;7640;53.116;6.878;2024-01-30T07:51:54;24.37;;;18.67;;
15082;SDS011;7640;53.116;6.878;2024-01-30T07:54:23;23.37;;;17.80;;
15082;SDS011;7640;53.116;6.878;2024-01-30T07:57:00;24.97;;;18.13;;
15082;SDS011;7640;53.116;6.878;2024-01-30T07:59:30;22.60;;;17.67;;
15082;SDS011;7640;53.116;6.878;2024-01-30T08:02:02;23.50;;;18.50;;
15082;SDS011;7640;53.116;6.878;2024-01-30T08:04:31;24.60;;;18.23;;
15082;SDS011;7640;53.116;6.878;2024-01-30T08:07:01;24.47;;;18.13;;
15082;SDS011;7640;53.116;6.878;2024-01-30T08:09:30;23.97;;;17.53;;
15082;SDS011;7640;53.116;6.878;2024-01-30T08:11:59;25.63;;;18.80;;
15082;SDS011;7640;53.116;6.878;2024-01-30T08:14:28;26.37;;;18.27;;
15082;SDS011;7640;53.116;6.878;2024-01-30T08:16:57;23.33;;;17.37;;
15082;SDS011;7640;53.116;6.878;2024-01-30T08:19:26;26.93;;;18.40;;
15082;SDS011;7640;53.116;6.878;2024-01-30T08:21:55;26.30;;;18.57;;
15082;SDS011;7640;53.116;6.878;2024-01-30T08:24:23;24.60;;;18.53;;
15082;SDS011;7640;53.116;6.878;2024-01-30T08:26:52;26.47;;;17.60;;
15082;SDS011;7640;53.116;6.878;2024-01-30T08:29:20;25.37;;;17.87;;
15082;SDS011;7640;53.116;6.878;2024-01-30T08:31:49;23.70;;;17.30;;
15082;SDS011;7640;53.116;6.878;2024-01-30T08:34:19;22.23;;;17.10;;
15082;SDS011;7640;53.116;6.878;2024-01-30T08:36:47;22.17;;;17.00;;
15082;SDS011;7640;53.116;6.878;2024-01-30T08:39:16;28.17;;;16.77;;
15082;SDS011;7640;53.116;6.878;2024-01-30T08:41:45;24.47;;;17.73;;
15082;SDS011;7640;53.116;6.878;2024-01-30T08:44:14;22.40;;;17.07;;
15082;SDS011;7640;53.116;6.878;2024-01-30T08:46:44;24.50;;;17.37;;
15082;SDS011;7640;53.116;6.878;2024-01-30T08:49:13;22.53;;;17.30;;
15082;SDS011;7640;53.116;6.878;2024-01-30T08:51:46;20.47;;;16.37;;
15082;SDS011;7640;53.116;6.878;2024-01-30T08:54:15;20.77;;;16.43;;
15082;SDS011;7640;53.116;6.878;2024-01-30T08:56:44;22.47;;;17.07;;
15082;SDS011;7640;53.116;6.878;2024-01-30T08:59:13;21.40;;;15.77;;
15082;SDS011;7640;53.116;6.878;2024-01-30T09:01:41;21.70;;;16.73;;
15082;SDS011;7640;53.116;6.878;2024-01-30T09:04:28;23.30;;;17.03;;
15082;SDS011;7640;53.116;6.878;2024-01-30T09:06:59;21.50;;;16.33;;
15082;SDS011;7640;53.116;6.878;2024-01-30T09:09:28;21.23;;;15.97;;
15082;SDS011;7640;53.116;6.878;2024-01-30T09:11:56;22.50;;;15.83;;
15082;SDS011;7640;53.116;6.878;2024-01-30T09:14:28;21.53;;;15.90;;
15082;SDS011;7640;53.116;6.878;2024-01-30T09:16:59;23.07;;;16.47;;
15082;SDS011;7640;53.116;6.878;2024-01-30T09:19:29;21.23;;;15.33;;
15082;SDS011;7640;53.116;6.878;2024-01-30T09:22:00;21.17;;;15.77;;
15082;SDS011;7640;53.116;6.878;2024-01-30T09:25:45;19.60;;;15.23;;
15082;SDS011;7640;53.116;6.878;2024-01-30T09:28:16;20.10;;;15.53;;
15082;SDS011;7640;53.116;6.878;2024-01-30T09:30:45;21.70;;;15.97;;
15082;SDS011;7640;53.116;6.878;2024-01-30T09:33:14;20.97;;;15.00;;
15082;SDS011;7640;53.116;6.878;2024-01-30T09:35:42;21.93;;;15.87;;
15082;SDS011;7640;53.116;6.878;2024-01-30T09:38:12;23.23;;;15.13;;
15082;SDS011;7640;53.116;6.878;2024-01-30T09:40:41;20.23;;;15.03;;
15082;SDS011;7640;53.116;6.878;2024-01-30T09:43:15;20.80;;;16.03;;
15082;SDS011;7640;53.116;6.878;2024-01-30T09:45:53;21.77;;;15.17;;
15082;SDS011;7640;53.116;6.878;2024-01-30T09:48:23;21.53;;;15.30;;
15082;SDS011;7640;53.116;6.878;2024-01-30T09:50:53;19.83;;;14.57;;
15082;SDS011;7640;53.116;6.878;2024-01-30T09:53:22;21.53;;;14.93;;
15082;SDS011;7640;53.116;6.878;2024-01-30T09:55:51;18.07;;;14.23;;
15082;SDS011;7640;53.116;6.878;2024-01-30T09:58:20;18.40;;;13.83;;
15082;SDS011;7640;53.116;6.878;2024-01-30T10:00:49;19.87;;;14.20;;
15082;SDS011;7640;53.116;6.878;2024-01-30T10:03:19;18.23;;;14.07;;
15082;SDS011;7640;53.116;6.878;2024-01-30T10:05:49;18.93;;;14.90;;
15082;SDS011;7640;53.116;6.878;2024-01-30T10:08:20;17.00;;;14.30;;
15082;SDS011;7640;53.116;6.878;2024-01-30T10:10:49;17.43;;;13.47;;
15082;SDS011;7640;53.116;6.878;2024-01-30T10:13:17;18.63;;;13.60;;
15082;SDS011;7640;53.116;6.878;2024-01-30T10:15:47;18.03;;;14.17;;
15082;SDS011;7640;53.116;6.878;2024-01-30T10:18:17;17.47;;;13.73;;
15082;SDS011;7640;53.116;6.878;2024-01-30T10:20:45;16.70;;;13.17;;
15082;SDS011;7640;53.116;6.878;2024-01-30T10:23:14;16.67;;;12.90;;
15082;SDS011;7640;53.116;6.878;2024-01-30T10:25:43;18.77;;;13.73;;
15082;SDS011;7640;53.116;6.878;2024-01-30T10:28:12;18.07;;;12.67;;
15082;SDS011;7640;53.116;6.878;2024-01-30T10:30:42;18.80;;;13.70;;
15082;SDS011;7640;53.116;6.878;2024-01-30T10:33:12;19.53;;;12.97;;
15082;SDS011;7640;53.116;6.878;2024-01-30T10:35:41;18.00;;;13.27;;
15082;SDS011;7640;53.116;6.878;2024-01-30T10:38:11;18.77;;;13.43;;
15082;SDS011;7640;53.116;6.878;2024-01-30T10:40:43;17.60;;;12.90;;
15082;SDS011;7640;53.116;6.878;2024-01-30T10:43:14;17.50;;;13.10;;
15082;SDS011;7640;53.116;6.878;2024-01-30T10:45:46;19.23;;;13.00;;
15082;SDS011;7640;53.116;6.878;2024-01-30T10:48:18;18.23;;;13.90;;
15082;SDS011;7640;53.116;6.878;2024-01-30T10:50:54;20.20;;;12.63;;
15082;SDS011;7640;53.116;6.878;2024-01-30T10:53:26;16.87;;;13.87;;
15082;SDS011;7640;53.116;6.878;2024-01-30T10:55:57;19.30;;;13.50;;
15082;SDS011;7640;53.116;6.878;2024-01-30T10:58:30;18.67;;;13.67;;
15082;SDS011;7640;53.116;6.878;2024-01-30T11:00:58;21.13;;;14.23;;
15082;SDS011;7640;53.116;6.878;2024-01-30T11:03:30;18.77;;;13.17;;
15082;SDS011;7640;53.116;6.878;2024-01-30T11:06:00;16.70;;;13.67;;
15082;SDS011;7640;53.116;6.878;2024-01-30T11:08:33;22.43;;;13.20;;
15082;SDS011;7640;53.116;6.878;2024-01-30T11:11:02;19.13;;;13.80;;
15082;SDS011;7640;53.116;6.878;2024-01-30T11:13:40;19.87;;;13.77;;
15082;SDS011;7640;53.116;6.878;2024-01-30T11:16:09;18.37;;;12.87;;
15082;SDS011;7640;53.116;6.878;2024-01-30T11:18:42;22.37;;;13.47;;
15082;SDS011;7640;53.116;6.878;2024-01-30T11:21:11;20.43;;;13.57;;
15082;SDS011;7640;53.116;6.878;2024-01-30T11:23:42;20.73;;;14.43;;
15082;SDS011;7640;53.116;6.878;2024-01-30T11:26:11;19.40;;;14.70;;
15082;SDS011;7640;53.116;6.878;2024-01-30T11:28:40;21.03;;;13.60;;
15082;SDS011;7640;53.116;6.878;2024-01-30T11:31:08;20.43;;;14.73;;
15082;SDS011;7640;53.116;6.878;2024-01-30T11:33:42;19.43;;;14.80;;
15082;SDS011;7640;53.116;6.878;2024-01-30T11:36:11;20.27;;;14.33;;
15082;SDS011;7640;53.116;6.878;2024-01-30T11:38:44;21.60;;;14.60;;
15082;SDS011;7640;53.116;6.878;2024-01-30T11:41:13;21.70;;;14.20;;
15082;SDS011;7640;53.116;6.878;2024-01-30T11:43:50;17.27;;;14.10;;
15082;SDS011;7640;53.116;6.878;2024-01-30T11:46:20;19.60;;;14.47;;
15082;SDS011;7640;53.116;6.878;2024-01-30T11:48:50;20.37;;;15.03;;
15082;SDS011;7640;53.116;6.878;2024-01-30T11:51:20;20.20;;;14.23;;
15082;SDS011;7640;53.116;6.878;2024-01-30T11:53:49;21.40;;;14.67;;
15082;SDS011;7640;53.116;6.878;2024-01-30T11:56:18;20.40;;;14.03;;
15082;SDS011;7640;53.116;6.878;2024-01-30T11:58:46;21.20;;;14.37;;
15082;SDS011;7640;53.116;6.878;2024-01-30T12:01:16;23.83;;;14.77;;
15082;SDS011;7640;53.116;6.878;2024-01-30T12:03:50;21.60;;;14.67;;
15082;SDS011;7640;53.116;6.878;2024-01-30T12:06:19;19.93;;;15.77;;
15082;SDS011;7640;53.116;6.878;2024-01-30T12:08:55;23.93;;;16.10;;
15082;SDS011;7640;53.116;6.878;2024-01-30T12:11:26;24.60;;;16.10;;
15082;SDS011;7640;53.116;6.878;2024-01-30T12:13:56;22.17;;;15.30;;
15082;SDS011;7640;53.116;6.878;2024-01-30T12:16:26;24.57;;;16.80;;
15082;SDS011;7640;53.116;6.878;2024-01-30T12:19:02;21.50;;;15.10;;
15082;SDS011;7640;53.116;6.878;2024-01-30T12:21:31;20.50;;;14.67;;
15082;SDS011;7640;53.116;6.878;2024-01-30T12:24:01;20.73;;;13.63;;
15082;SDS011;7640;53.116;6.878;2024-01-30T13:32:22;1.97;;;1.30;;
15082;SDS011;7640;53.116;6.878;2024-01-30T13:34:50;3.00;;;1.60;;
15082;SDS011;7640;53.116;6.878;2024-01-30T13:37:19;2.67;;;1.50;;
15082;SDS011;7640;53.116;6.878;2024-01-30T13:39:47;3.63;;;1.60;;
15082;SDS011;7640;53.116;6.878;2024-01-30T13:42:16;2.17;;;1.30;;
15082;SDS011;7640;53.116;6.878;2024-01-30T13:44:45;1.83;;;1.13;;
15082;SDS011;7640;53.116;6.878;2024-01-30T13:47:14;1.43;;;1.10;;
15082;SDS011;7640;53.116;6.878;2024-01-30T13:49:47;4.73;;;1.43;;
15082;SDS011;7640;53.116;6.878;2024-01-30T13:52:16;2.07;;;1.40;;
15082;SDS011;7640;53.116;6.878;2024-01-30T13:54:48;1.80;;;1.27;;
15082;SDS011;7640;53.116;6.878;2024-01-30T13:57:16;3.50;;;1.40;;
15082;SDS011;7640;53.116;6.878;2024-01-30T13:59:45;1.80;;;1.33;;
15082;SDS011;7640;53.116;6.878;2024-01-30T14:02:14;3.03;;;1.40;;
15082;SDS011;7640;53.116;6.878;2024-01-30T14:04:43;3.33;;;1.43;;
15082;SDS011;7640;53.116;6.878;2024-01-30T14:07:15;2.27;;;1.23;;
15082;SDS011;7640;53.116;6.878;2024-01-30T14:09:45;2.97;;;1.30;;
15082;SDS011;7640;53.116;6.878;2024-01-30T14:12:15;2.10;;;1.57;;
15082;SDS011;7640;53.116;6.878;2024-01-30T14:14:44;3.50;;;1.57;;
15082;SDS011;7640;53.116;6.878;2024-01-30T14:17:13;3.13;;;1.40;;
15082;SDS011;7640;53.116;6.878;2024-01-30T14:19:42;1.67;;;1.23;;
15082;SDS011;7640;53.116;6.878;2024-01-30T14:22:12;2.60;;;1.20;;
15082;SDS011;7640;53.116;6.878;2024-01-30T14:24:45;2.13;;;1.53;;
15082;SDS011;7640;53.116;6.878;2024-01-30T14:27:14;2.07;;;1.47;;
15082;SDS011;7640;53.116;6.878;2024-01-30T14:29:45;4.37;;;1.60;;
15082;SDS011;7640;53.116;6.878;2024-01-30T14:32:13;3.83;;;1.90;;
15082;SDS011;7640;53.116;6.878;2024-01-30T14:34:43;2.40;;;1.57;;
15082;SDS011;7640;53.116;6.878;2024-01-30T14:37:13;2.53;;;1.70;;
15082;SDS011;7640;53.116;6.878;2024-01-30T14:39:43;2.47;;;1.80;;
15082;SDS011;7640;53.116;6.878;2024-01-30T14:42:13;4.43;;;1.70;;
15082;SDS011;7640;53.116;6.878;2024-01-30T14:44:44;2.57;;;1.90;;
15082;SDS011;7640;53.116;6.878;2024-01-30T14:47:14;3.60;;;2.27;;
15082;SDS011;7640;53.116;6.878;2024-01-30T14:49:43;4.03;;;2.37;;
15082;SDS011;7640;53.116;6.878;2024-01-30T14:52:15;4.83;;;2.30;;
15082;SDS011;7640;53.116;6.878;2024-01-30T14:54:43;3.77;;;2.33;;
15082;SDS011;7640;53.116;6.878;2024-01-30T14:57:13;4.17;;;2.70;;
15082;SDS011;7640;53.116;6.878;2024-01-30T14:59:44;4.90;;;2.70;;
15082;SDS011;7640;53.116;6.878;2024-01-30T15:02:15;5.40;;;2.83;;
15082;SDS011;7640;53.116;6.878;2024-01-30T15:04:44;2.80;;;2.47;;
15082;SDS011;7640;53.116;6.878;2024-01-30T15:07:14;4.70;;;3.30;;
15082;SDS011;7640;53.116;6.878;2024-01-30T15:09:58;4.30;;;3.13;;
15082;SDS011;7640;53.116;6.878;2024-01-30T15:12:30;7.30;;;3.93;;
15082;SDS011;7640;53.116;6.878;2024-01-30T15:14:59;4.93;;;3.33;;
15082;SDS011;7640;53.116;6.878;2024-01-30T15:17:28;4.67;;;3.60;;
15082;SDS011;7640;53.116;6.878;2024-01-30T15:19:56;4.27;;;3.73;;
15082;SDS011;7640;53.116;6.878;2024-01-30T15:22:28;4.80;;;3.67;;
15082;SDS011;7640;53.116;6.878;2024-01-30T15:24:57;6.93;;;4.43;;
15082;SDS011;7640;53.116;6.878;2024-01-30T15:27:30;6.90;;;3.93;;
15082;SDS011;7640;53.116;6.878;2024-01-30T15:29:59;4.00;;;3.43;;
15082;SDS011;7640;53.116;6.878;2024-01-30T15:32:28;6.47;;;3.80;;
15082;SDS011;7640;53.116;6.878;2024-01-30T15:34:56;4.93;;;3.60;;
15082;SDS011;7640;53.116;6.878;2024-01-30T15:37:29;6.00;;;3.93;;
15082;SDS011;7640;53.116;6.878;2024-01-30T15:39:57;5.00;;;3.97;;
15082;SDS011;7640;53.116;6.878;2024-01-30T15:42:26;3.63;;;3.33;;
15082;SDS011;7640;53.116;6.878;2024-01-30T15:44:55;4.60;;;4.20;;
15082;SDS011;7640;53.116;6.878;2024-01-30T15:47:25;4.77;;;4.07;;
15082;SDS011;7640;53.116;6.878;2024-01-30T15:49:53;6.53;;;4.53;;
15082;SDS011;7640;53.116;6.878;2024-01-30T15:52:25;6.33;;;5.73;;
15082;SDS011;7640;53.116;6.878;2024-01-30T15:54:55;8.73;;;5.40;;
15082;SDS011;7640;53.116;6.878;2024-01-30T15:57:24;6.53;;;5.20;;
15082;SDS011;7640;53.116;6.878;2024-01-30T15:59:55;6.20;;;5.60;;